Time;durP1;ratioP1;P1;durP2;ratioP2;P2;SDS_P1;SDS_P2;PMS_P1;PMS_P2;Temp;Humidity;BMP_temperature;BMP_pressure;BME280_temperature;BME280_humidity;BME280_pressure;Samples;Min_cycle;Max_cycle;Signal;HPM_P1;HPM_P2
2021/04/20 00:01:04;;;;;;;51.03;29.17;;;7.50;99.90;;;;;;6185053;23;20393;-89
2021/04/20 00:03:31;;;;;;;50.47;29.27;;;7.60;99.90;;;;;;6211518;23;20020;-90
2021/04/20 00:05:57;;;;;;;56.85;30.95;;;7.50;99.90;;;;;;6162220;23;20055;-89
2021/04/20 00:08:23;;;;;;;49.28;30.02;;;7.50;99.90;;;;;;6136720;23;20028;-90
2021/04/20 00:10:49;;;;;;;53.80;30.58;;;7.50;99.90;;;;;;6162286;23;20020;-90
2021/04/20 00:13:15;;;;;;;44.95;29.17;;;7.50;99.90;;;;;;6161887;23;20043;-89
2021/04/20 00:15:41;;;;;;;56.40;30.92;;;7.40;99.90;;;;;;6186944;23;20048;-89
2021/04/20 00:18:07;;;;;;;49.67;29.17;;;7.30;99.90;;;;;;6212351;23;20023;-88
2021/04/20 00:20:35;;;;;;;57.00;30.08;;;7.30;99.90;;;;;;6212721;23;20029;-88
2021/04/20 00:23:03;;;;;;;55.42;30.38;;;7.20;99.90;;;;;;6185723;23;20389;-90
2021/04/20 00:25:29;;;;;;;30.75;21.23;;;7.20;99.90;;;;;;6162546;23;20027;-89
2021/04/20 00:27:55;;;;;;;37.08;20.90;;;7.10;99.90;;;;;;6161463;23;20017;-90
2021/04/20 00:30:21;;;;;;;38.05;19.25;;;7.20;99.90;;;;;;6186904;23;20026;-91
2021/04/20 00:32:47;;;;;;;38.58;19.83;;;7.20;99.90;;;;;;6137550;23;20330;-89
2021/04/20 00:35:13;;;;;;;33.03;18.95;;;7.20;99.90;;;;;;6136406;23;20025;-90
2021/04/20 00:37:40;;;;;;;39.08;19.75;;;7.20;99.90;;;;;;6186790;23;20020;-88
2021/04/20 00:40:08;;;;;;;34.40;20.50;;;7.30;99.90;;;;;;6186096;23;20028;-92
2021/04/20 00:42:46;;;;;;;40.15;19.88;;;7.20;99.90;;;;;;6162729;23;20024;-89
2021/04/20 00:45:15;;;;;;;33.47;21.15;;;7.20;99.90;;;;;;6186528;23;20066;-88
2021/04/20 00:47:41;;;;;;;30.80;20.17;;;7.20;99.90;;;;;;6186773;23;20019;-89
2021/04/20 00:50:08;;;;;;;36.92;20.15;;;7.10;99.90;;;;;;6136618;23;20021;-89
2021/04/20 00:52:34;;;;;;;37.92;20.45;;;7.00;99.90;;;;;;6162132;23;20493;-89
2021/04/20 00:55:00;;;;;;;40.78;19.92;;;7.00;99.90;;;;;;6162000;23;20063;-89
2021/04/20 00:57:26;;;;;;;37.25;19.00;;;7.10;99.90;;;;;;6185885;23;20008;-90
2021/04/20 00:59:52;;;;;;;33.28;19.58;;;7.10;99.90;;;;;;6187070;23;20024;-89
2021/04/20 01:02:18;;;;;;;36.38;20.17;;;7.10;99.90;;;;;;6184879;23;20016;-90
2021/04/20 01:04:43;;;;;;;35.78;20.77;;;7.10;99.90;;;;;;6161089;23;20043;-89
2021/04/20 01:07:10;;;;;;;33.03;21.58;;;7.00;99.90;;;;;;6159593;23;20017;-88
2021/04/20 01:09:36;;;;;;;38.10;20.40;;;7.00;99.90;;;;;;6185487;23;20016;-88
2021/04/20 01:12:02;;;;;;;38.85;21.50;;;7.00;99.90;;;;;;6186270;23;20102;-88
2021/04/20 01:14:28;;;;;;;40.28;22.83;;;7.00;99.90;;;;;;6160460;23;20021;-88
2021/04/20 01:16:54;;;;;;;40.05;21.80;;;6.90;99.90;;;;;;6186164;23;20035;-88
2021/04/20 01:19:23;;;;;;;32.03;18.85;;;6.90;99.90;;;;;;6185126;23;20017;-88
2021/04/20 01:21:50;;;;;;;40.40;22.07;;;6.80;99.90;;;;;;6186198;23;20476;-90
2021/04/20 01:24:21;;;;;;;41.67;22.25;;;6.70;99.90;;;;;;6211609;23;20017;-89
2021/04/20 01:26:47;;;;;;;33.90;21.13;;;6.70;99.90;;;;;;6186004;23;20038;-88
2021/04/20 01:29:14;;;;;;;31.40;20.08;;;6.70;99.90;;;;;;6160745;23;20462;-89
2021/04/20 01:31:44;;;;;;;39.78;21.55;;;6.70;99.90;;;;;;6161834;23;20016;-89
2021/04/20 01:34:10;;;;;;;50.60;22.73;;;6.60;99.90;;;;;;6161139;23;20091;-92
2021/04/20 01:36:36;;;;;;;34.78;21.05;;;6.60;99.90;;;;;;6162055;23;20016;-90
2021/04/20 01:39:05;;;;;;;40.85;21.42;;;6.60;99.90;;;;;;6161361;23;20055;-89
2021/04/20 01:41:32;;;;;;;39.58;21.23;;;6.60;99.90;;;;;;6185406;23;20078;-89
2021/04/20 01:44:02;;;;;;;48.40;23.45;;;6.60;99.90;;;;;;6186163;23;20020;-89
2021/04/20 01:46:28;;;;;;;39.63;20.80;;;6.60;99.90;;;;;;6160244;23;20649;-89
2021/04/20 01:48:54;;;;;;;38.97;21.83;;;6.50;99.90;;;;;;6186558;23;20096;-89
2021/04/20 01:51:21;;;;;;;45.05;20.67;;;6.50;99.90;;;;;;6185705;23;20017;-88
2021/04/20 01:53:48;;;;;;;43.28;21.67;;;6.40;99.90;;;;;;6185937;23;20031;-89
2021/04/20 01:56:14;;;;;;;42.15;23.40;;;6.40;99.90;;;;;;6211428;23;20021;-89
2021/04/20 01:58:42;;;;;;;48.20;23.27;;;6.40;99.90;;;;;;6186045;23;20016;-88
2021/04/20 02:01:13;;;;;;;43.75;22.00;;;6.40;99.90;;;;;;6161889;23;20016;-88
2021/04/20 02:03:42;;;;;;;46.30;23.05;;;6.50;99.90;;;;;;6212774;23;20040;-89
2021/04/20 02:06:08;;;;;;;39.65;20.98;;;6.50;99.90;;;;;;6211174;23;20021;-90
2021/04/20 02:08:39;;;;;;;40.00;21.80;;;6.40;99.90;;;;;;6162322;23;20020;-90
2021/04/20 02:11:07;;;;;;;48.13;21.08;;;6.40;99.90;;;;;;6185223;23;20446;-90
2021/04/20 02:13:34;;;;;;;46.35;24.45;;;6.40;99.90;;;;;;6184342;23;20139;-89
2021/04/20 02:16:02;;;;;;;40.63;19.85;;;6.40;99.90;;;;;;6160123;23;20040;-89
2021/04/20 02:18:32;;;;;;;44.55;22.92;;;6.30;99.90;;;;;;6184817;23;20047;-89
2021/04/20 02:20:59;;;;;;;45.85;22.35;;;6.20;99.90;;;;;;6188059;23;20036;-92
2021/04/20 02:23:25;;;;;;;49.15;24.48;;;6.20;99.90;;;;;;6163354;23;20051;-89
2021/04/20 02:25:53;;;;;;;40.10;23.58;;;6.20;99.90;;;;;;6188340;23;20471;-91
2021/04/20 02:28:20;;;;;;;52.38;25.20;;;6.30;99.90;;;;;;6186881;23;20119;-88
2021/04/20 02:30:46;;;;;;;47.40;23.67;;;6.30;99.90;;;;;;6188242;23;20024;-88
2021/04/20 02:33:13;;;;;;;44.28;23.85;;;6.30;99.90;;;;;;6187819;23;20450;-90
2021/04/20 02:35:39;;;;;;;46.55;23.35;;;6.30;99.90;;;;;;6212080;23;20024;-89
2021/04/20 02:38:08;;;;;;;47.95;24.63;;;6.30;99.90;;;;;;6212504;23;20020;-88
2021/04/20 02:40:35;;;;;;;53.03;24.42;;;6.20;99.90;;;;;;6163285;23;20489;-88
2021/04/20 02:43:02;;;;;;;54.05;26.48;;;6.20;99.90;;;;;;6212811;23;20016;-88
2021/04/20 02:45:32;;;;;;;50.58;26.88;;;6.10;99.90;;;;;;6162304;23;20017;-88
2021/04/20 02:47:58;;;;;;;57.50;26.38;;;6.00;99.90;;;;;;6162498;23;20127;-90
2021/04/20 02:50:27;;;;;;;52.58;27.20;;;6.00;99.90;;;;;;6186491;23;20111;-88
2021/04/20 02:52:54;;;;;;;58.40;28.08;;;6.20;99.90;;;;;;6162014;23;20052;-88
2021/04/20 02:55:22;;;;;;;58.03;26.80;;;6.20;99.90;;;;;;6186053;23;20520;-88
2021/04/20 02:57:53;;;;;;;54.08;26.00;;;6.30;99.90;;;;;;6213829;23;20028;-88
2021/04/20 03:00:22;;;;;;;41.95;24.40;;;6.20;99.90;;;;;;6215174;23;20071;-89
2021/04/20 03:02:53;;;;;;;49.97;26.48;;;6.20;99.90;;;;;;6187564;23;20020;-90
2021/04/20 03:05:20;;;;;;;56.22;27.75;;;6.30;99.90;;;;;;6197400;23;20016;-90
2021/04/20 03:07:47;;;;;;;50.92;25.75;;;6.10;99.90;;;;;;6187808;23;20027;-90
2021/04/20 03:10:15;;;;;;;43.88;25.98;;;6.10;99.90;;;;;;6163633;23;20078;-89
2021/04/20 03:12:43;;;;;;;40.35;23.92;;;6.00;99.90;;;;;;6163516;23;20797;-89
2021/04/20 03:15:11;;;;;;;44.00;26.17;;;6.00;99.90;;;;;;6163817;23;20099;-89
2021/04/20 03:17:42;;;;;;;46.17;26.42;;;5.90;99.90;;;;;;6187447;23;20078;-89
2021/04/20 03:20:09;;;;;;;59.40;28.00;;;5.90;99.90;;;;;;6162978;23;20346;-89
2021/04/20 03:22:37;;;;;;;59.20;28.40;;;5.90;99.90;;;;;;6186352;23;20021;-89
2021/04/20 03:25:06;;;;;;;47.90;25.88;;;5.90;99.90;;;;;;6214146;23;20505;-89
2021/04/20 03:27:36;;;;;;;45.03;23.45;;;5.90;99.90;;;;;;6212651;23;20043;-89
2021/04/20 03:30:05;;;;;;;43.30;22.65;;;6.00;99.90;;;;;;6213494;23;20024;-90
2021/04/20 03:32:31;;;;;;;48.00;26.45;;;5.80;99.90;;;;;;6137509;23;20100;-89
2021/04/20 03:35:14;;;;;;;56.22;28.50;;;5.70;99.90;;;;;;6187733;23;20094;-90
2021/04/20 03:37:50;;;;;;;47.95;26.75;;;5.80;99.90;;;;;;6161697;23;20023;-90
2021/04/20 03:40:19;;;;;;;59.08;28.55;;;5.90;99.90;;;;;;6187305;23;20012;-89
2021/04/20 03:42:51;;;;;;;53.72;27.90;;;5.80;99.90;;;;;;6187594;23;20017;-88
2021/04/20 03:45:29;;;;;;;47.72;26.00;;;5.70;99.90;;;;;;6197716;23;20012;-91
2021/04/20 03:48:10;;;;;;;47.63;27.30;;;5.80;99.90;;;;;;6223806;23;20012;-88
2021/04/20 03:50:39;;;;;;;49.47;25.92;;;5.70;99.90;;;;;;6196270;23;20012;-89
2021/04/20 03:53:15;;;;;;;48.53;27.17;;;5.60;99.90;;;;;;6186423;23;20016;-89
2021/04/20 03:55:46;;;;;;;53.83;27.02;;;5.60;99.90;;;;;;6186196;23;20037;-89
2021/04/20 03:58:14;;;;;;;50.92;28.13;;;5.60;99.90;;;;;;6213331;23;20016;-89
2021/04/20 04:00:41;;;;;;;49.75;25.67;;;5.60;99.90;;;;;;6178903;23;20139;-89
2021/04/20 04:03:09;;;;;;;43.83;24.90;;;5.70;99.90;;;;;;6212820;23;20009;-89
2021/04/20 04:05:37;;;;;;;43.78;23.30;;;5.80;99.90;;;;;;6211756;23;20436;-91
2021/04/20 04:08:07;;;;;;;43.47;23.80;;;5.70;99.90;;;;;;6187521;23;20016;-89
2021/04/20 04:10:34;;;;;;;43.83;22.38;;;5.70;99.90;;;;;;6210828;23;20021;-90
2021/04/20 04:13:03;;;;;;;42.72;22.08;;;5.60;99.90;;;;;;6187130;23;20044;-90
2021/04/20 04:15:32;;;;;;;39.85;23.40;;;5.60;99.90;;;;;;6210907;23;20071;-90
2021/04/20 04:18:00;;;;;;;48.38;23.00;;;5.60;99.90;;;;;;6186340;23;20055;-88
2021/04/20 04:20:27;;;;;;;43.58;21.92;;;5.60;99.90;;;;;;6213071;23;20020;-89
2021/04/20 04:23:01;;;;;;;51.33;22.95;;;5.60;99.90;;;;;;6212105;23;20091;-89
2021/04/20 04:25:34;;;;;;;38.35;21.83;;;5.60;99.90;;;;;;6211484;23;20036;-88
2021/04/20 04:28:02;;;;;;;50.75;23.75;;;5.60;99.90;;;;;;6223146;23;20061;-89
2021/04/20 04:30:29;;;;;;;41.50;22.23;;;5.60;99.90;;;;;;6185059;23;20115;-89
2021/04/20 04:32:56;;;;;;;41.70;22.92;;;5.60;99.90;;;;;;6185214;23;20143;-89
2021/04/20 04:35:23;;;;;;;47.42;21.63;;;5.70;99.90;;;;;;6184974;23;20025;-91
2021/04/20 04:37:49;;;;;;;40.28;21.40;;;5.70;99.90;;;;;;6210757;23;20088;-90
2021/04/20 04:40:18;;;;;;;32.65;19.50;;;5.70;99.90;;;;;;6211735;23;20028;-90
2021/04/20 04:42:44;;;;;;;40.60;21.98;;;5.70;99.90;;;;;;6213012;23;20106;-90
2021/04/20 04:45:11;;;;;;;36.45;19.80;;;5.70;99.90;;;;;;6212179;23;20031;-90
2021/04/20 04:47:37;;;;;;;31.80;19.00;;;5.70;99.90;;;;;;6186401;23;20070;-90
2021/04/20 04:50:06;;;;;;;35.45;19.55;;;5.70;99.90;;;;;;6211917;23;20021;-90
2021/04/20 04:52:32;;;;;;;37.08;19.48;;;5.70;99.90;;;;;;6210123;23;20016;-89
2021/04/20 04:54:59;;;;;;;35.38;20.05;;;5.80;99.90;;;;;;6185547;23;20099;-89
2021/04/20 04:57:26;;;;;;;36.30;19.58;;;5.70;99.90;;;;;;6209895;23;20071;-91
2021/04/20 04:59:59;;;;;;;29.08;17.35;;;5.90;99.90;;;;;;6185571;23;20335;-89
2021/04/20 05:02:27;;;;;;;34.85;19.10;;;5.80;99.90;;;;;;6210050;23;20095;-92
2021/04/20 05:04:55;;;;;;;34.60;19.40;;;5.80;99.90;;;;;;6212395;23;20040;-89
2021/04/20 05:07:24;;;;;;;27.10;17.73;;;5.80;99.90;;;;;;6210983;23;20016;-89
2021/04/20 05:09:50;;;;;;;32.17;19.05;;;5.80;99.90;;;;;;6185518;23;20386;-89
2021/04/20 05:12:23;;;;;;;31.67;19.67;;;5.80;99.90;;;;;;6210993;23;20028;-89
2021/04/20 05:14:48;;;;;;;37.25;20.20;;;6.00;99.90;;;;;;6185632;23;20446;-89
2021/04/20 05:17:15;;;;;;;40.95;19.95;;;5.90;99.90;;;;;;6161310;23;20068;-89
2021/04/20 05:19:42;;;;;;;33.72;21.02;;;6.00;99.90;;;;;;6210552;23;20017;-88
2021/04/20 05:22:12;;;;;;;33.85;18.85;;;5.80;99.90;;;;;;6185781;23;20027;-89
2021/04/20 05:24:38;;;;;;;41.25;19.67;;;5.90;99.90;;;;;;6209902;23;20473;-90
2021/04/20 05:27:06;;;;;;;34.40;19.00;;;5.80;99.90;;;;;;6185992;23;20016;-88
2021/04/20 05:29:33;;;;;;;35.05;18.70;;;5.90;99.90;;;;;;6185638;23;20473;-89
2021/04/20 05:31:59;;;;;;;34.88;19.23;;;5.90;99.90;;;;;;6185922;23;20312;-89
2021/04/20 05:34:25;;;;;;;38.70;19.00;;;5.90;99.90;;;;;;6210985;23;20046;-90
2021/04/20 05:36:50;;;;;;;42.97;19.25;;;5.90;99.90;;;;;;6210966;23;20342;-91
2021/04/20 05:39:17;;;;;;;30.73;17.95;;;5.90;99.90;;;;;;6186185;23;20342;-91
2021/04/20 05:41:43;;;;;;;28.95;17.67;;;6.00;99.90;;;;;;6185018;23;20096;-90
2021/04/20 05:44:12;;;;;;;32.78;18.48;;;6.00;99.90;;;;;;6185579;23;20024;-90
2021/04/20 05:46:40;;;;;;;32.30;18.40;;;6.00;99.90;;;;;;6209373;23;20051;-89
2021/04/20 05:49:07;;;;;;;33.35;18.40;;;6.00;99.90;;;;;;6209858;23;20112;-89
2021/04/20 05:51:35;;;;;;;27.83;16.60;;;6.10;99.90;;;;;;6184534;23;20020;-88
2021/04/20 05:54:01;;;;;;;31.65;16.88;;;6.30;99.90;;;;;;6160473;23;20020;-88
2021/04/20 05:56:27;;;;;;;36.15;17.15;;;6.10;99.90;;;;;;6185397;23;20019;-89
2021/04/20 05:58:58;;;;;;;29.23;16.15;;;6.10;99.90;;;;;;6184712;23;20403;-88
2021/04/20 06:01:25;;;;;;;31.58;16.88;;;6.20;99.90;;;;;;6212172;23;20025;-89
2021/04/20 06:03:53;;;;;;;24.80;15.40;;;6.20;99.90;;;;;;6184880;23;20013;-90
2021/04/20 06:06:22;;;;;;;23.52;15.68;;;6.20;99.90;;;;;;6185691;23;20087;-88
2021/04/20 06:08:51;;;;;;;24.15;14.75;;;6.30;99.90;;;;;;6184796;23;20027;-90
2021/04/20 06:11:18;;;;;;;30.00;15.40;;;6.30;99.90;;;;;;6161295;23;20411;-90
2021/04/20 06:13:45;;;;;;;24.45;15.95;;;6.40;99.90;;;;;;6160523;23;20024;-88
2021/04/20 06:16:11;;;;;;;22.02;13.88;;;6.40;99.90;;;;;;6160909;23;20108;-90
2021/04/20 06:18:39;;;;;;;21.20;13.70;;;6.50;99.90;;;;;;6184472;23;20017;-89
2021/04/20 06:21:06;;;;;;;31.20;14.20;;;6.50;99.90;;;;;;6136479;23;20020;-89
2021/04/20 06:23:34;;;;;;;29.70;13.63;;;6.60;99.90;;;;;;6184610;23;20100;-90
2021/04/20 06:26:02;;;;;;;24.95;13.70;;;6.60;99.90;;;;;;6160667;23;20040;-89
2021/04/20 06:28:30;;;;;;;22.90;14.38;;;6.70;99.90;;;;;;6160348;23;20017;-90
2021/04/20 06:30:58;;;;;;;24.88;14.75;;;6.70;99.90;;;;;;6184971;23;20017;-88
2021/04/20 06:33:25;;;;;;;23.90;14.70;;;6.80;99.90;;;;;;6185134;23;20055;-89
2021/04/20 06:35:53;;;;;;;29.00;14.50;;;6.90;99.90;;;;;;6184463;23;20140;-89
2021/04/20 06:38:19;;;;;;;29.70;14.57;;;7.00;99.90;;;;;;6160831;23;20035;-90
2021/04/20 06:40:52;;;;;;;25.55;14.88;;;7.10;99.90;;;;;;6211704;23;20063;-90
2021/04/20 06:43:48;;;;;;;26.38;13.95;;;7.10;99.90;;;;;;6184971;23;20047;-89
2021/04/20 06:46:20;;;;;;;23.60;14.65;;;7.20;99.90;;;;;;6179954;23;20025;-89
2021/04/20 06:49:00;;;;;;;27.48;14.90;;;7.30;99.90;;;;;;6184531;23;20016;-89
2021/04/20 06:51:33;;;;;;;22.57;13.77;;;7.40;99.90;;;;;;6160212;23;20700;-89
2021/04/20 06:54:08;;;;;;;26.35;14.20;;;7.40;99.90;;;;;;6184730;23;20013;-90
2021/04/20 06:56:50;;;;;;;26.55;15.35;;;7.50;99.90;;;;;;6184635;23;20048;-88
2021/04/20 06:59:51;;;;;;;23.35;14.05;;;7.50;99.90;;;;;;6183964;23;20017;-91
2021/04/20 07:02:45;;;;;;;24.35;13.32;;;7.60;99.90;;;;;;6158880;23;20024;-88
2021/04/20 07:05:18;;;;;;;23.15;13.40;;;7.60;99.90;;;;;;6220540;23;20509;-92
2021/04/20 07:07:58;;;;;;;18.65;11.77;;;7.70;99.90;;;;;;6136636;23;20028;-89
2021/04/20 07:10:44;;;;;;;21.77;11.48;;;7.70;99.90;;;;;;6160919;23;20476;-90
2021/04/20 07:13:14;;;;;;;21.25;12.07;;;7.80;99.90;;;;;;6186432;23;20506;-91
2021/04/20 07:15:54;;;;;;;20.85;12.82;;;7.80;99.90;;;;;;6161135;23;20013;-89
2021/04/20 07:18:54;;;;;;;26.67;13.43;;;7.90;99.90;;;;;;6213017;23;20020;-89
2021/04/20 07:21:23;;;;;;;28.00;11.10;;;7.90;99.90;;;;;;6161320;23;20338;-90
2021/04/20 07:24:19;;;;;;;24.70;12.87;;;8.00;99.90;;;;;;6184875;23;20096;-88
2021/04/20 07:26:53;;;;;;;21.10;12.32;;;8.10;99.90;;;;;;6194856;23;20032;-88
2021/04/20 07:29:34;;;;;;;21.13;11.57;;;8.20;99.90;;;;;;6195698;23;20021;-87
2021/04/20 07:32:46;;;;;;;16.45;10.55;;;8.20;99.90;;;;;;6221963;23;20021;-89
2021/04/20 07:35:19;;;;;;;14.68;9.02;;;8.30;99.90;;;;;;6185921;23;20013;-88
2021/04/20 07:37:57;;;;;;;18.42;9.60;;;8.50;99.90;;;;;;6210184;23;20043;-89
2021/04/20 07:40:35;;;;;;;17.98;9.85;;;8.40;99.90;;;;;;6192999;23;20039;-89
2021/04/20 07:43:29;;;;;;;23.25;9.35;;;8.50;99.90;;;;;;6184833;23;20016;-88
2021/04/20 07:46:17;;;;;;;15.80;9.90;;;8.50;99.90;;;;;;6210383;23;20024;-89
2021/04/20 07:48:49;;;;;;;13.20;8.63;;;8.50;99.90;;;;;;6185092;23;20465;-90
2021/04/20 07:52:07;;;;;;;25.58;10.27;;;8.60;99.90;;;;;;6184255;23;20043;-89
2021/04/20 07:54:38;;;;;;;20.88;9.30;;;8.60;99.90;;;;;;6121208;23;20032;-89
2021/04/20 07:57:30;;;;;;;25.70;9.77;;;8.70;99.90;;;;;;6159111;23;20020;-90
2021/04/20 08:00:06;;;;;;;15.95;9.23;;;8.80;99.90;;;;;;6195485;23;20055;-90
2021/04/20 08:02:38;;;;;;;23.40;8.80;;;8.90;99.90;;;;;;6185297;23;20505;-89
2021/04/20 08:05:27;;;;;;;17.08;8.93;;;8.90;99.90;;;;;;6210175;23;20087;-90
2021/04/20 08:08:04;;;;;;;13.30;7.60;;;9.10;99.90;;;;;;6209720;23;20379;-89
2021/04/20 08:10:42;;;;;;;18.38;9.02;;;9.10;99.90;;;;;;6185869;23;20020;-90
2021/04/20 08:13:11;;;;;;;14.65;7.28;;;9.20;99.90;;;;;;6185328;23;20389;-89
2021/04/20 08:15:48;;;;;;;15.40;8.20;;;9.30;99.90;;;;;;6185321;23;20370;-90
2021/04/20 08:18:37;;;;;;;28.00;7.82;;;9.40;99.90;;;;;;6185904;23;20025;-90
2021/04/20 08:21:03;;;;;;;11.65;7.75;;;9.50;99.90;;;;;;6209335;23;20013;-91
2021/04/20 08:23:31;;;;;;;14.10;8.65;;;9.50;99.90;;;;;;6185204;23;20036;-88
2021/04/20 08:26:04;;;;;;;15.68;8.57;;;9.50;99.90;;;;;;6209574;23;20020;-90
2021/04/20 08:28:40;;;;;;;20.77;9.10;;;9.60;99.90;;;;;;6185635;23;20016;-90
2021/04/20 08:31:30;;;;;;;12.82;7.97;;;9.60;99.90;;;;;;6184907;23;20021;-89
2021/04/20 08:34:03;;;;;;;21.23;10.27;;;9.70;99.90;;;;;;6209951;23;20032;-92
2021/04/20 08:37:01;;;;;;;16.55;8.65;;;9.80;99.90;;;;;;6186513;23;20017;-90
2021/04/20 08:39:30;;;;;;;23.50;9.05;;;9.80;99.90;;;;;;6210112;23;20461;-88
2021/04/20 08:42:31;;;;;;;17.05;9.32;;;9.90;99.90;;;;;;6209196;23;20017;-88
2021/04/20 08:45:10;;;;;;;23.98;9.18;;;9.90;99.90;;;;;;6210365;23;20040;-89
2021/04/20 08:48:01;;;;;;;16.35;9.65;;;9.90;99.90;;;;;;6212143;23;20013;-90
2021/04/20 08:50:30;;;;;;;19.27;9.20;;;9.90;99.90;;;;;;6210931;23;20036;-89
2021/04/20 08:53:20;;;;;;;26.25;9.15;;;10.00;99.90;;;;;;6184812;23;20111;-89
2021/04/20 08:55:48;;;;;;;;;;;10.00;99.90;;;;;;6220047;23;20020;-91
2021/04/20 08:58:35;;;;;;;17.85;9.82;;;10.10;99.90;;;;;;6210068;23;19924;-90
2021/04/20 09:01:20;;;;;;;19.77;9.13;;;10.10;99.90;;;;;;6210691;23;20395;-89
2021/04/20 09:04:07;;;;;;;16.88;9.63;;;10.20;99.90;;;;;;6184367;23;20020;-89
2021/04/20 09:06:49;;;;;;;20.35;9.35;;;10.30;99.90;;;;;;6184868;23;20083;-88
2021/04/20 09:09:22;;;;;;;18.02;8.38;;;10.40;99.90;;;;;;6184695;23;20463;-89
2021/04/20 09:12:02;;;;;;;12.40;7.90;;;10.40;99.90;;;;;;6195117;23;20012;-89
2021/04/20 09:14:34;;;;;;;22.75;8.30;;;10.40;99.90;;;;;;6184590;23;20100;-88
2021/04/20 09:17:09;;;;;;;15.88;8.68;;;10.50;99.90;;;;;;6210758;23;20012;-88
2021/04/20 09:19:52;;;;;;;21.73;7.95;;;10.60;99.90;;;;;;6185193;23;20013;-90
2021/04/20 09:22:54;;;;;;;15.80;8.15;;;10.70;99.90;;;;;;6194968;23;20020;-90
2021/04/20 09:25:35;;;;;;;17.02;9.02;;;10.80;99.90;;;;;;6185252;23;20036;-90
2021/04/20 09:28:18;;;;;;;17.98;8.68;;;10.90;99.90;;;;;;6158489;23;20023;-90
2021/04/20 09:30:52;;;;;;;14.98;8.60;;;11.00;99.90;;;;;;6222004;23;20039;-90
2021/04/20 09:33:21;;;;;;;18.40;8.80;;;11.10;99.90;;;;;;6185474;23;20017;-90
2021/04/20 09:35:49;;;;;;;22.02;9.57;;;11.30;99.90;;;;;;6185264;23;20020;-91
2021/04/20 09:38:16;;;;;;;22.02;9.52;;;11.30;99.90;;;;;;6185035;23;20116;-90
2021/04/20 09:40:45;;;;;;;16.50;8.60;;;11.40;99.90;;;;;;6184973;23;20458;-89
2021/04/20 09:43:23;;;;;;;15.40;8.60;;;11.50;99.90;;;;;;6185063;23;20024;-90
2021/04/20 09:45:57;;;;;;;17.88;8.43;;;11.60;99.90;;;;;;6184733;23;20396;-90
2021/04/20 09:48:44;;;;;;;15.10;8.77;;;11.80;99.90;;;;;;6184952;23;20013;-90
2021/04/20 09:51:18;;;;;;;14.73;8.07;;;12.00;99.90;;;;;;6183315;23;20015;-89
2021/04/20 09:53:44;;;;;;;18.55;7.93;;;12.10;99.90;;;;;;6210937;23;20040;-92
2021/04/20 09:56:42;;;;;;;12.85;7.03;;;12.20;99.90;;;;;;6183129;23;20017;-90
2021/04/20 09:59:31;;;;;;;12.73;7.75;;;12.30;99.90;;;;;;6183238;23;20617;-90
2021/04/20 10:02:18;;;;;;;13.43;7.18;;;12.40;99.90;;;;;;6183282;23;20366;-91
2021/04/20 10:05:31;;;;;;;15.55;7.10;;;12.50;99.90;;;;;;6210913;23;20016;-91
2021/04/20 10:08:29;;;;;;;18.73;8.07;;;12.70;99.90;;;;;;6160248;23;20323;-91
2021/04/20 10:11:04;;;;;;;22.23;6.80;;;12.90;99.90;;;;;;6194737;23;20071;-91
2021/04/20 10:13:55;;;;;;;13.40;6.88;;;13.00;99.90;;;;;;6185210;23;20013;-90
2021/04/20 10:16:53;;;;;;;17.10;7.32;;;13.10;99.90;;;;;;6185176;23;20442;-91
2021/04/20 10:19:37;;;;;;;12.35;6.63;;;13.10;99.90;;;;;;6185305;23;20458;-91
2021/04/20 10:22:24;;;;;;;24.08;6.65;;;13.20;99.90;;;;;;6159803;23;20095;-91
2021/04/20 10:25:35;;;;;;;14.23;6.20;;;13.30;99.90;;;;;;6211297;23;20039;-91
2021/04/20 10:28:29;;;;;;;10.30;5.65;;;13.40;99.90;;;;;;6070434;23;20033;-90
2021/04/20 10:31:00;;;;;;;13.35;5.28;;;13.60;99.90;;;;;;6184525;23;20083;-92
2021/04/20 10:33:28;;;;;;;11.85;6.25;;;13.70;99.90;;;;;;6185061;23;20132;-91
2021/04/20 10:35:58;;;;;;;9.32;4.35;;;14.20;99.90;;;;;;6184234;23;20016;-92
2021/04/20 10:38:30;;;;;;;8.52;4.60;;;14.10;99.90;;;;;;6185095;23;20041;-91
2021/04/20 10:40:56;;;;;;;6.57;3.95;;;14.20;99.90;;;;;;6195816;23;20016;-92
2021/04/20 10:43:25;;;;;;;10.90;4.20;;;14.30;99.90;;;;;;6161662;23;20515;-91
2021/04/20 10:45:53;;;;;;;8.52;4.55;;;14.40;99.90;;;;;;6187441;23;20021;-91
2021/04/20 10:48:24;;;;;;;9.55;4.57;;;14.60;99.90;;;;;;6186162;23;20071;-90
2021/04/20 10:50:55;;;;;;;10.43;5.15;;;14.60;99.90;;;;;;6211825;23;20044;-92
2021/04/20 10:53:40;;;;;;;11.52;4.00;;;14.70;98.90;;;;;;6185621;23;20091;-90
2021/04/20 10:56:12;;;;;;;12.95;4.18;;;14.80;99.90;;;;;;6210078;23;20017;-91
2021/04/20 10:58:48;;;;;;;14.07;4.55;;;14.90;99.90;;;;;;6183753;23;20512;-91
2021/04/20 11:01:18;;;;;;;13.07;4.28;;;15.00;99.90;;;;;;6211577;23;20025;-91
2021/04/20 11:03:47;;;;;;;9.88;4.03;;;15.00;99.90;;;;;;6161450;23;20021;-92
2021/04/20 11:06:50;;;;;;;10.60;3.80;;;15.20;99.90;;;;;;6159121;23;20063;-90
2021/04/20 11:09:16;;;;;;;9.65;4.28;;;15.20;99.00;;;;;;6211631;23;20020;-90
2021/04/20 11:11:46;;;;;;;4.80;3.85;;;15.30;99.90;;;;;;6185808;23;20032;-90
2021/04/20 11:14:13;;;;;;;7.38;3.63;;;15.40;99.00;;;;;;6159468;23;20022;-90
2021/04/20 11:16:42;;;;;;;9.20;3.78;;;15.50;99.50;;;;;;6136189;23;20319;-89
2021/04/20 11:19:10;;;;;;;10.88;3.60;;;15.60;99.40;;;;;;6179655;23;20072;-90
2021/04/20 11:21:41;;;;;;;8.18;3.55;;;15.60;99.10;;;;;;6184692;23;20024;-90
2021/04/20 11:24:14;;;;;;;18.05;3.35;;;15.80;97.60;;;;;;6159223;23;20036;-89
2021/04/20 11:26:43;;;;;;;6.35;2.75;;;15.80;97.80;;;;;;6185239;23;20020;-90
2021/04/20 11:29:13;;;;;;;5.90;3.08;;;15.80;98.40;;;;;;6159749;23;20020;-90
2021/04/20 11:31:46;;;;;;;5.07;3.28;;;15.90;96.10;;;;;;6160446;23;20024;-90
2021/04/20 11:34:16;;;;;;;5.95;2.92;;;16.00;96.10;;;;;;6184801;23;20456;-90
2021/04/20 11:36:46;;;;;;;3.47;2.60;;;16.00;97.10;;;;;;6160477;23;20027;-90
2021/04/20 11:39:16;;;;;;;;;;;16.10;94.80;;;;;;6182619;23;20013;-90
2021/04/20 11:41:55;;;;;;;;;;;16.20;94.10;;;;;;6160224;23;19948;-90
2021/04/20 11:44:23;;;;;;;3.90;2.60;;;16.30;93.60;;;;;;6159576;23;19916;-90
2021/04/20 11:46:50;;;;;;;7.25;2.50;;;16.40;93.60;;;;;;6185488;23;20012;-90
2021/04/20 11:49:23;;;;;;;4.38;2.17;;;16.50;90.40;;;;;;6210738;23;20020;-89
2021/04/20 11:51:51;;;;;;;5.28;2.35;;;16.50;79.90;;;;;;6160038;23;20012;-90
2021/04/20 11:54:29;;;;;;;7.53;2.40;;;16.60;84.10;;;;;;6159123;23;20017;-90
2021/04/20 11:57:01;;;;;;;7.97;2.53;;;16.70;89.00;;;;;;6185286;23;20024;-91
2021/04/20 11:59:29;;;;;;;5.45;2.67;;;16.70;79.10;;;;;;6185227;23;20051;-91
2021/04/20 12:01:56;;;;;;;5.50;2.25;;;16.70;76.20;;;;;;6221984;23;20017;-91
2021/04/20 12:04:27;;;;;;;4.38;2.50;;;16.80;69.40;;;;;;6159681;23;20009;-92
2021/04/20 12:06:56;;;;;;;9.55;2.47;;;16.90;85.30;;;;;;6185259;23;20021;-90
2021/04/20 12:09:44;;;;;;;2.33;2.10;;;17.00;76.60;;;;;;6159391;23;20544;-91
2021/04/20 12:12:12;;;;;;;5.47;2.33;;;17.10;85.00;;;;;;6159851;23;20343;-91
2021/04/20 12:14:41;;;;;;;2.35;2.15;;;17.20;73.90;;;;;;6160760;23;20039;-92
2021/04/20 12:17:07;;;;;;;3.03;1.98;;;17.40;85.50;;;;;;6184230;23;20091;-92
2021/04/20 12:19:36;;;;;;;3.10;2.13;;;17.50;74.70;;;;;;6180848;23;20102;-89
2021/04/20 12:22:05;;;;;;;10.00;2.07;;;17.70;85.20;;;;;;6184784;23;20078;-90
2021/04/20 12:24:37;;;;;;;5.30;2.30;;;17.90;80.60;;;;;;6158999;23;20455;-90
2021/04/20 12:27:05;;;;;;;3.92;2.42;;;17.80;59.40;;;;;;6194541;23;20023;-92
2021/04/20 12:29:45;;;;;;;3.95;2.10;;;18.10;73.20;;;;;;6211064;23;20051;-89
2021/04/20 12:32:12;;;;;;;4.60;2.58;;;18.20;65.30;;;;;;6210636;23;20016;-90
2021/04/20 12:34:39;;;;;;;4.47;1.90;;;18.40;58.90;;;;;;6211629;23;20024;-89
2021/04/20 12:37:07;;;;;;;5.28;2.22;;;18.60;61.70;;;;;;6184249;23;20115;-90
2021/04/20 12:39:42;;;;;;;5.93;1.80;;;18.70;56.30;;;;;;6185296;23;20044;-89
2021/04/20 12:42:15;;;;;;;4.60;2.10;;;18.90;61.00;;;;;;6183763;23;20390;-89
2021/04/20 12:44:45;;;;;;;5.50;2.00;;;19.10;66.20;;;;;;6184913;23;20023;-89
2021/04/20 12:47:12;;;;;;;5.35;3.13;;;19.40;58.40;;;;;;6220705;23;20062;-90
2021/04/20 12:49:43;;;;;;;8.15;3.33;;;19.60;55.20;;;;;;6184962;23;20512;-90
2021/04/20 12:52:13;;;;;;;6.07;3.38;;;18.80;62.30;;;;;;6184243;23;20039;-90
2021/04/20 12:54:42;;;;;;;;;;;18.10;56.30;;;;;;6211580;23;20398;-89
2021/04/20 12:57:14;;;;;;;10.48;3.55;;;17.80;62.40;;;;;;6159328;23;19998;-91
2021/04/20 12:59:44;;;;;;;5.88;3.47;;;17.30;65.20;;;;;;6211249;23;20013;-88
2021/04/20 13:02:11;;;;;;;14.02;4.07;;;17.20;81.20;;;;;;6183154;23;20023;-89
2021/04/20 13:04:40;;;;;;;7.57;4.10;;;17.10;84.50;;;;;;6184768;23;20099;-89
2021/04/20 13:07:07;;;;;;;10.32;3.97;;;17.00;81.70;;;;;;6185206;23;20051;-90